sensor_id;sensor_type;location;lat;lon;timestamp;pressure;altitude;pressure_sealevel;temperature;humidity
72157;BME280;60035;52.122;5.406;2023-04-25T00:01:40;101270.44;;;5.64;100.00
72157;BME280;60035;52.122;5.406;2023-04-25T00:04:07;101269.59;;;5.60;100.00
72157;BME280;60035;52.122;5.406;2023-04-25T00:06:34;101275.53;;;5.58;100.00
72157;BME280;60035;52.122;5.406;2023-04-25T00:09:05;101278.09;;;5.55;100.00
72157;BME280;60035;52.122;5.406;2023-04-25T00:11:36;101278.06;;;5.51;100.00
72157;BME280;60035;52.122;5.406;2023-04-25T00:14:03;101282.31;;;5.49;100.00
72157;BME280;60035;52.122;5.406;2023-04-25T00:16:30;101287.41;;;5.51;100.00
72157;BME280;60035;52.122;5.406;2023-04-25T00:19:01;101280.63;;;5.51;100.00
72157;BME280;60035;52.122;5.406;2023-04-25T00:21:28;101283.16;;;5.55;100.00
72157;BME280;60035;52.122;5.406;2023-04-25T00:23:55;101285.69;;;5.58;100.00
72157;BME280;60035;52.122;5.406;2023-04-25T00:26:22;101285.69;;;5.58;100.00
72157;BME280;60035;52.122;5.406;2023-04-25T00:28:49;101287.38;;;5.59;100.00
72157;BME280;60035;52.122;5.406;2023-04-25T00:31:15;101297.53;;;5.62;100.00
72157;BME280;60035;52.122;5.406;2023-04-25T00:33:42;101284.84;;;5.62;100.00
72157;BME280;60035;52.122;5.406;2023-04-25T00:36:08;101291.59;;;5.64;100.00
72157;BME280;60035;52.122;5.406;2023-04-25T00:38:35;101285.69;;;5.64;100.00
72157;BME280;60035;52.122;5.406;2023-04-25T00:41:02;101292.47;;;5.65;100.00
72157;BME280;60035;52.122;5.406;2023-04-25T00:43:30;101289.06;;;5.66;100.00
72157;BME280;60035;52.122;5.406;2023-04-25T00:46:00;101295.00;;;5.63;100.00
72157;BME280;60035;52.122;5.406;2023-04-25T00:48:27;101291.59;;;5.64;100.00
72157;BME280;60035;52.122;5.406;2023-04-25T00:50:57;101291.63;;;5.63;100.00
72157;BME280;60035;52.122;5.406;2023-04-25T00:53:26;101301.78;;;5.63;100.00
72157;BME280;60035;52.122;5.406;2023-04-25T00:55:54;101300.94;;;5.64;100.00
72157;BME280;60035;52.122;5.406;2023-04-25T00:58:21;101294.16;;;5.63;100.00
72157;BME280;60035;52.122;5.406;2023-04-25T01:00:49;101298.41;;;5.64;100.00
72157;BME280;60035;52.122;5.406;2023-04-25T01:03:18;101293.31;;;5.64;100.00
72157;BME280;60035;52.122;5.406;2023-04-25T01:05:48;101288.25;;;5.62;100.00
72157;BME280;60035;52.122;5.406;2023-04-25T01:08:15;101288.22;;;5.61;100.00
72157;BME280;60035;52.122;5.406;2023-04-25T01:10:44;101292.47;;;5.60;100.00
72157;BME280;60035;52.122;5.406;2023-04-25T01:13:11;101289.94;;;5.56;100.00
72157;BME280;60035;52.122;5.406;2023-04-25T01:15:37;101296.72;;;5.50;100.00
72157;BME280;60035;52.122;5.406;2023-04-25T01:18:05;101300.13;;;5.46;100.00
72157;BME280;60035;52.122;5.406;2023-04-25T01:20:33;101297.56;;;5.42;100.00
72157;BME280;60035;52.122;5.406;2023-04-25T01:23:00;101303.50;;;5.36;100.00
72157;BME280;60035;52.122;5.406;2023-04-25T01:25:32;101301.81;;;5.33;100.00
72157;BME280;60035;52.122;5.406;2023-04-25T01:27:58;101311.09;;;5.31;100.00
72157;BME280;60035;52.122;5.406;2023-04-25T01:30:28;101317.88;;;5.25;100.00
72157;BME280;60035;52.122;5.406;2023-04-25T01:32:55;101307.72;;;5.18;100.00
72157;BME280;60035;52.122;5.406;2023-04-25T01:35:23;101311.97;;;5.15;100.00
72157;BME280;60035;52.122;5.406;2023-04-25T01:37:50;101322.97;;;5.12;100.00
72157;BME280;60035;52.122;5.406;2023-04-25T01:40:17;101313.66;;;5.08;100.00
72157;BME280;60035;52.122;5.406;2023-04-25T01:42:45;101317.88;;;5.06;100.00
72157;BME280;60035;52.122;5.406;2023-04-25T01:45:12;101318.72;;;5.02;100.00
72157;BME280;60035;52.122;5.406;2023-04-25T01:47:39;101317.84;;;4.98;100.00
72157;BME280;60035;52.122;5.406;2023-04-25T01:50:08;101321.22;;;4.96;100.00
72157;BME280;60035;52.122;5.406;2023-04-25T01:52:35;101332.25;;;4.95;100.00
72157;BME280;60035;52.122;5.406;2023-04-25T01:55:02;101326.31;;;4.93;100.00
72157;BME280;60035;52.122;5.406;2023-04-25T01:57:28;101333.09;;;4.92;100.00
72157;BME280;60035;52.122;5.406;2023-04-25T01:59:58;101331.38;;;4.87;100.00
72157;BME280;60035;52.122;5.406;2023-04-25T02:02:25;101336.44;;;4.85;100.00
72157;BME280;60035;52.122;5.406;2023-04-25T02:04:52;101332.22;;;4.82;100.00
72157;BME280;60035;52.122;5.406;2023-04-25T02:07:20;101337.28;;;4.79;100.00
72157;BME280;60035;52.122;5.406;2023-04-25T02:09:47;101340.66;;;4.75;100.00
72157;BME280;60035;52.122;5.406;2023-04-25T02:12:13;101338.09;;;4.72;100.00
72157;BME280;60035;52.122;5.406;2023-04-25T02:14:40;101334.72;;;4.70;100.00
72157;BME280;60035;52.122;5.406;2023-04-25T02:17:06;101341.47;;;4.66;100.00
72157;BME280;60035;52.122;5.406;2023-04-25T02:19:33;101344.84;;;4.61;100.00
72157;BME280;60035;52.122;5.406;2023-04-25T02:22:00;101348.22;;;4.57;100.00
72157;BME280;60035;52.122;5.406;2023-04-25T02:24:26;101342.28;;;4.55;100.00
72157;BME280;60035;52.122;5.406;2023-04-25T02:26:54;101349.00;;;4.49;100.00
72157;BME280;60035;52.122;5.406;2023-04-25T02:29:22;101350.72;;;4.47;100.00
72157;BME280;60035;52.122;5.406;2023-04-25T02:31:48;101346.47;;;4.48;100.00
72157;BME280;60035;52.122;5.406;2023-04-25T02:34:15;101349.84;;;4.48;100.00
72157;BME280;60035;52.122;5.406;2023-04-25T02:36:41;101350.69;;;4.44;100.00
72157;BME280;60035;52.122;5.406;2023-04-25T02:39:08;101350.69;;;4.43;100.00
72157;BME280;60035;52.122;5.406;2023-04-25T02:41:34;101351.50;;;4.39;100.00
72157;BME280;60035;52.122;5.406;2023-04-25T02:44:01;101348.97;;;4.37;100.00
72157;BME280;60035;52.122;5.406;2023-04-25T02:46:27;101354.88;;;4.39;100.00
72157;BME280;60035;52.122;5.406;2023-04-25T02:49:05;101350.69;;;4.40;100.00
72157;BME280;60035;52.122;5.406;2023-04-25T02:51:32;101348.16;;;4.40;100.00
72157;BME280;60035;52.122;5.406;2023-04-25T02:53:58;101343.91;;;4.42;100.00
72157;BME280;60035;52.122;5.406;2023-04-25T02:56:25;101353.22;;;4.40;100.00
72157;BME280;60035;52.122;5.406;2023-04-25T02:58:52;101354.06;;;4.42;100.00
72157;BME280;60035;52.122;5.406;2023-04-25T03:01:19;101356.63;;;4.45;100.00
72157;BME280;60035;52.122;5.406;2023-04-25T03:03:46;101367.59;;;4.47;100.00
72157;BME280;60035;52.122;5.406;2023-04-25T03:06:13;101356.63;;;4.49;100.00
72157;BME280;60035;52.122;5.406;2023-04-25T03:08:40;101354.09;;;4.49;100.00
72157;BME280;60035;52.122;5.406;2023-04-25T03:11:07;101352.38;;;4.48;100.00
72157;BME280;60035;52.122;5.406;2023-04-25T03:13:33;101354.09;;;4.46;100.00
72157;BME280;60035;52.122;5.406;2023-04-25T03:16:00;101351.56;;;4.43;100.00
72157;BME280;60035;52.122;5.406;2023-04-25T03:18:27;101361.66;;;4.42;100.00
72157;BME280;60035;52.122;5.406;2023-04-25T03:20:53;101361.66;;;4.39;100.00
72157;BME280;60035;52.122;5.406;2023-04-25T03:23:20;101375.16;;;4.36;100.00
72157;BME280;60035;52.122;5.406;2023-04-25T03:25:46;101370.09;;;4.33;100.00
72157;BME280;60035;52.122;5.406;2023-04-25T03:28:13;101370.91;;;4.30;100.00
72157;BME280;60035;52.122;5.406;2023-04-25T03:30:39;101376.00;;;4.29;100.00
72157;BME280;60035;52.122;5.406;2023-04-25T03:33:06;101375.13;;;4.25;100.00
72157;BME280;60035;52.122;5.406;2023-04-25T03:35:32;101373.41;;;4.26;100.00
72157;BME280;60035;52.122;5.406;2023-04-25T03:37:59;101381.03;;;4.26;100.00
72157;BME280;60035;52.122;5.406;2023-04-25T03:40:25;101372.59;;;4.27;100.00
72157;BME280;60035;52.122;5.406;2023-04-25T03:42:52;101381.88;;;4.29;100.00
72157;BME280;60035;52.122;5.406;2023-04-25T03:45:18;101386.97;;;4.32;100.00
72157;BME280;60035;52.122;5.406;2023-04-25T03:47:45;101400.50;;;4.36;100.00
72157;BME280;60035;52.122;5.406;2023-04-25T03:50:12;101383.63;;;4.40;100.00
72157;BME280;60035;52.122;5.406;2023-04-25T03:52:38;101391.25;;;4.44;100.00
72157;BME280;60035;52.122;5.406;2023-04-25T03:55:05;101381.16;;;4.47;100.00
72157;BME280;60035;52.122;5.406;2023-04-25T03:57:31;101382.84;;;4.53;100.00
72157;BME280;60035;52.122;5.406;2023-04-25T04:00:01;101390.50;;;4.58;100.00
72157;BME280;60035;52.122;5.406;2023-04-25T04:02:28;101391.34;;;4.61;100.00
72157;BME280;60035;52.122;5.406;2023-04-25T04:04:57;101388.81;;;4.66;100.00
72157;BME280;60035;52.122;5.406;2023-04-25T04:07:31;101389.66;;;4.70;100.00
72157;BME280;60035;52.122;5.406;2023-04-25T04:10:02;101398.16;;;4.75;100.00
72157;BME280;60035;52.122;5.406;2023-04-25T04:12:31;101400.72;;;4.76;100.00
72157;BME280;60035;52.122;5.406;2023-04-25T04:15:02;101404.09;;;4.77;100.00
72157;BME280;60035;52.122;5.406;2023-04-25T04:17:30;101403.25;;;4.78;100.00
72157;BME280;60035;52.122;5.406;2023-04-25T04:19:56;101404.91;;;4.77;100.00
72157;BME280;60035;52.122;5.406;2023-04-25T04:22:23;101408.31;;;4.78;100.00
72157;BME280;60035;52.122;5.406;2023-04-25T04:24:50;101407.50;;;4.80;100.00
72157;BME280;60035;52.122;5.406;2023-04-25T04:27:18;101404.13;;;4.83;100.00
72157;BME280;60035;52.122;5.406;2023-04-25T04:29:45;101406.66;;;4.84;100.00
72157;BME280;60035;52.122;5.406;2023-04-25T04:32:13;101413.44;;;4.86;100.00
72157;BME280;60035;52.122;5.406;2023-04-25T04:34:42;101415.09;;;4.85;100.00
72157;BME280;60035;52.122;5.406;2023-04-25T04:37:09;101412.56;;;4.85;100.00
72157;BME280;60035;52.122;5.406;2023-04-25T04:39:36;101411.72;;;4.84;100.00
72157;BME280;60035;52.122;5.406;2023-04-25T04:42:04;101416.81;;;4.86;100.00
72157;BME280;60035;52.122;5.406;2023-04-25T04:44:31;101416.81;;;4.88;100.00
72157;BME280;60035;52.122;5.406;2023-04-25T04:47:01;101423.59;;;4.89;100.00
72157;BME280;60035;52.122;5.406;2023-04-25T04:49:30;101428.66;;;4.92;100.00
72157;BME280;60035;52.122;5.406;2023-04-25T04:51:56;101428.66;;;4.93;100.00
72157;BME280;60035;52.122;5.406;2023-04-25T04:54:25;101427.84;;;4.97;100.00
72157;BME280;60035;52.122;5.406;2023-04-25T04:56:51;101438.84;;;5.01;100.00
72157;BME280;60035;52.122;5.406;2023-04-25T04:59:18;101438.03;;;5.07;100.00
72157;BME280;60035;52.122;5.406;2023-04-25T05:01:45;101440.56;;;5.10;100.00
72157;BME280;60035;52.122;5.406;2023-04-25T05:04:15;101445.63;;;5.14;100.00
72157;BME280;60035;52.122;5.406;2023-04-25T05:06:42;101448.22;;;5.17;100.00
72157;BME280;60035;52.122;5.406;2023-04-25T05:09:14;101446.50;;;5.16;100.00
72157;BME280;60035;52.122;5.406;2023-04-25T05:11:41;101454.13;;;5.18;100.00
72157;BME280;60035;52.122;5.406;2023-04-25T05:14:07;101461.72;;;5.20;100.00
72157;BME280;60035;52.122;5.406;2023-04-25T05:16:34;101458.34;;;5.22;100.00
72157;BME280;60035;52.122;5.406;2023-04-25T05:19:01;101464.31;;;5.23;100.00
72157;BME280;60035;52.122;5.406;2023-04-25T05:21:37;101464.31;;;5.26;100.00
72157;BME280;60035;52.122;5.406;2023-04-25T05:24:04;101471.09;;;5.27;100.00
72157;BME280;60035;52.122;5.406;2023-04-25T05:26:37;101469.38;;;5.27;100.00
72157;BME280;60035;52.122;5.406;2023-04-25T05:29:06;101476.16;;;5.28;100.00
72157;BME280;60035;52.122;5.406;2023-04-25T05:31:36;101479.53;;;5.29;100.00
72157;BME280;60035;52.122;5.406;2023-04-25T05:34:02;101477.88;;;5.29;100.00
72157;BME280;60035;52.122;5.406;2023-04-25T05:36:29;101480.41;;;5.29;100.00
72157;BME280;60035;52.122;5.406;2023-04-25T05:38:57;101479.56;;;5.32;100.00
72157;BME280;60035;52.122;5.406;2023-04-25T05:41:23;101483.81;;;5.36;100.00
72157;BME280;60035;52.122;5.406;2023-04-25T05:43:49;101479.56;;;5.40;100.00
72157;BME280;60035;52.122;5.406;2023-04-25T05:46:17;101482.13;;;5.46;100.00
72157;BME280;60035;52.122;5.406;2023-04-25T05:48:43;101482.97;;;5.51;100.00
72157;BME280;60035;52.122;5.406;2023-04-25T05:51:10;101483.00;;;5.56;100.00
72157;BME280;60035;52.122;5.406;2023-04-25T05:53:36;101491.47;;;5.58;100.00
72157;BME280;60035;52.122;5.406;2023-04-25T05:56:03;101490.63;;;5.62;100.00
72157;BME280;60035;52.122;5.406;2023-04-25T05:58:29;101494.88;;;5.67;100.00
72157;BME280;60035;52.122;5.406;2023-04-25T06:00:56;101503.34;;;5.77;100.00
72157;BME280;60035;52.122;5.406;2023-04-25T06:03:22;101503.34;;;5.85;100.00
72157;BME280;60035;52.122;5.406;2023-04-25T06:05:49;101501.66;;;5.92;100.00
72157;BME280;60035;52.122;5.406;2023-04-25T06:08:16;101505.91;;;5.96;100.00
72157;BME280;60035;52.122;5.406;2023-04-25T06:10:43;101516.09;;;5.99;100.00
72157;BME280;60035;52.122;5.406;2023-04-25T06:13:09;101516.94;;;6.03;100.00
72157;BME280;60035;52.122;5.406;2023-04-25T06:15:36;101521.19;;;6.08;100.00
72157;BME280;60035;52.122;5.406;2023-04-25T06:18:02;101517.78;;;6.11;100.00
72157;BME280;60035;52.122;5.406;2023-04-25T06:20:29;101515.25;;;6.12;100.00
72157;BME280;60035;52.122;5.406;2023-04-25T06:22:55;101521.19;;;6.16;100.00
72157;BME280;60035;52.122;5.406;2023-04-25T06:25:22;101518.63;;;6.19;100.00
72157;BME280;60035;52.122;5.406;2023-04-25T06:27:48;101525.41;;;6.22;100.00
72157;BME280;60035;52.122;5.406;2023-04-25T06:30:15;101528.81;;;6.21;100.00
72157;BME280;60035;52.122;5.406;2023-04-25T06:32:44;101526.28;;;6.25;100.00
72157;BME280;60035;52.122;5.406;2023-04-25T06:35:11;101525.44;;;6.34;100.00
72157;BME280;60035;52.122;5.406;2023-04-25T06:37:37;101525.41;;;6.43;100.00
72157;BME280;60035;52.122;5.406;2023-04-25T06:40:04;101532.19;;;6.54;100.00
72157;BME280;60035;52.122;5.406;2023-04-25T06:42:32;101530.47;;;6.62;100.00
72157;BME280;60035;52.122;5.406;2023-04-25T06:44:58;101537.25;;;6.64;100.00
72157;BME280;60035;52.122;5.406;2023-04-25T06:47:28;101537.22;;;6.71;100.00
72157;BME280;60035;52.122;5.406;2023-04-25T06:49:54;101541.47;;;6.72;100.00
72157;BME280;60035;52.122;5.406;2023-04-25T06:52:30;101544.00;;;6.73;100.00
72157;BME280;60035;52.122;5.406;2023-04-25T06:55:00;101543.19;;;6.70;100.00
72157;BME280;60035;52.122;5.406;2023-04-25T06:57:27;101549.13;;;6.67;100.00
72157;BME280;60035;52.122;5.406;2023-04-25T06:59:53;101545.72;;;6.70;100.00
72157;BME280;60035;52.122;5.406;2023-04-25T07:02:20;101542.31;;;6.75;100.00
72157;BME280;60035;52.122;5.406;2023-04-25T07:04:50;101549.09;;;6.81;100.00
72157;BME280;60035;52.122;5.406;2023-04-25T07:07:17;101549.06;;;6.90;100.00
72157;BME280;60035;52.122;5.406;2023-04-25T07:09:43;101556.69;;;6.92;100.00
72157;BME280;60035;52.122;5.406;2023-04-25T07:12:10;101555.84;;;6.93;100.00
72157;BME280;60035;52.122;5.406;2023-04-25T07:14:36;101555.03;;;6.84;100.00
72157;BME280;60035;52.122;5.406;2023-04-25T07:17:03;101562.66;;;6.80;99.60
72157;BME280;60035;52.122;5.406;2023-04-25T07:19:29;101572.00;;;6.76;100.00
72157;BME280;60035;52.122;5.406;2023-04-25T07:21:56;101571.16;;;6.76;100.00
72157;BME280;60035;52.122;5.406;2023-04-25T07:24:22;101567.72;;;6.92;100.00
72157;BME280;60035;52.122;5.406;2023-04-25T07:26:49;101582.09;;;7.16;100.00
72157;BME280;60035;52.122;5.406;2023-04-25T07:29:16;101577.75;;;7.34;97.51
72157;BME280;60035;52.122;5.406;2023-04-25T07:31:42;101579.44;;;7.41;96.87
72157;BME280;60035;52.122;5.406;2023-04-25T07:34:09;101583.66;;;7.52;97.20
72157;BME280;60035;52.122;5.406;2023-04-25T07:36:35;101583.59;;;7.59;96.78
72157;BME280;60035;52.122;5.406;2023-04-25T07:39:02;101580.16;;;7.70;97.22
72157;BME280;60035;52.122;5.406;2023-04-25T07:41:28;101580.94;;;7.81;96.53
72157;BME280;60035;52.122;5.406;2023-04-25T07:43:55;101581.75;;;7.89;95.95
72157;BME280;60035;52.122;5.406;2023-04-25T07:46:21;101593.59;;;7.95;94.39
72157;BME280;60035;52.122;5.406;2023-04-25T07:48:48;101590.16;;;8.04;94.08
72157;BME280;60035;52.122;5.406;2023-04-25T07:51:15;101585.91;;;8.06;91.84
72157;BME280;60035;52.122;5.406;2023-04-25T07:53:41;101590.94;;;8.10;92.24
72157;BME280;60035;52.122;5.406;2023-04-25T07:56:08;101598.50;;;8.23;92.63
72157;BME280;60035;52.122;5.406;2023-04-25T07:58:35;101599.31;;;8.31;91.93
72157;BME280;60035;52.122;5.406;2023-04-25T08:01:02;101598.41;;;8.35;91.20
72157;BME280;60035;52.122;5.406;2023-04-25T08:03:28;101604.38;;;8.36;90.34
72157;BME280;60035;52.122;5.406;2023-04-25T08:05:55;101607.69;;;8.44;86.19
72157;BME280;60035;52.122;5.406;2023-04-25T08:08:22;101609.41;;;8.43;85.93
72157;BME280;60035;52.122;5.406;2023-04-25T08:10:48;101612.78;;;8.52;85.47
72157;BME280;60035;52.122;5.406;2023-04-25T08:13:15;101612.72;;;8.58;86.71
72157;BME280;60035;52.122;5.406;2023-04-25T08:15:41;101620.22;;;8.76;87.12
72157;BME280;60035;52.122;5.406;2023-04-25T08:18:08;101624.38;;;8.83;86.32
72157;BME280;60035;52.122;5.406;2023-04-25T08:20:35;101628.59;;;8.88;84.91
72157;BME280;60035;52.122;5.406;2023-04-25T08:23:06;101631.19;;;8.84;84.52
72157;BME280;60035;52.122;5.406;2023-04-25T08:25:33;101634.84;;;8.56;81.70
72157;BME280;60035;52.122;5.406;2023-04-25T08:28:00;101655.56;;;8.12;83.77
72157;BME280;60035;52.122;5.406;2023-04-25T08:30:29;101644.59;;;7.93;86.40
72157;BME280;60035;52.122;5.406;2023-04-25T08:32:56;101657.44;;;7.81;89.12
72157;BME280;60035;52.122;5.406;2023-04-25T08:35:22;101660.84;;;7.74;88.09
72157;BME280;60035;52.122;5.406;2023-04-25T08:37:49;101657.47;;;7.72;87.44
72157;BME280;60035;52.122;5.406;2023-04-25T08:40:15;101666.84;;;7.65;87.64
72157;BME280;60035;52.122;5.406;2023-04-25T08:42:42;101666.84;;;7.62;86.43
72157;BME280;60035;52.122;5.406;2023-04-25T08:45:09;101665.97;;;7.72;86.93
72157;BME280;60035;52.122;5.406;2023-04-25T08:47:37;101667.66;;;7.73;85.05
72157;BME280;60035;52.122;5.406;2023-04-25T08:50:05;101665.09;;;7.81;84.72
72157;BME280;60035;52.122;5.406;2023-04-25T08:52:38;101673.63;;;7.75;84.18
72157;BME280;60035;52.122;5.406;2023-04-25T08:55:08;101675.25;;;7.89;84.14
72157;BME280;60035;52.122;5.406;2023-04-25T08:57:35;101679.31;;;8.21;85.05
72157;BME280;60035;52.122;5.406;2023-04-25T09:00:03;101682.47;;;8.60;84.08
72157;BME280;60035;52.122;5.406;2023-04-25T09:02:30;101682.31;;;8.78;82.60
72157;BME280;60035;52.122;5.406;2023-04-25T09:04:57;101695.09;;;8.81;82.33
72157;BME280;60035;52.122;5.406;2023-04-25T09:07:26;101700.16;;;8.83;78.72
72157;BME280;60035;52.122;5.406;2023-04-25T09:09:53;101695.91;;;8.85;76.74
72157;BME280;60035;52.122;5.406;2023-04-25T09:12:20;101694.06;;;8.98;79.04
72157;BME280;60035;52.122;5.406;2023-04-25T09:15:11;101691.38;;;9.13;78.35
72157;BME280;60035;52.122;5.406;2023-04-25T09:17:41;101705.47;;;9.53;78.16
72157;BME280;60035;52.122;5.406;2023-04-25T09:20:12;101701.66;;;9.85;77.57
72157;BME280;60035;52.122;5.406;2023-04-25T09:22:39;101692.03;;;10.06;76.12
72157;BME280;60035;52.122;5.406;2023-04-25T09:25:10;101704.84;;;10.03;76.63
72157;BME280;60035;52.122;5.406;2023-04-25T09:27:49;101712.06;;;9.73;73.50
72157;BME280;60035;52.122;5.406;2023-04-25T09:30:16;101712.34;;;9.46;75.04
72157;BME280;60035;52.122;5.406;2023-04-25T09:32:43;101718.25;;;9.52;76.87
72157;BME280;60035;52.122;5.406;2023-04-25T09:35:10;101719.78;;;9.66;77.71
72157;BME280;60035;52.122;5.406;2023-04-25T09:37:40;101727.34;;;9.77;75.25
72157;BME280;60035;52.122;5.406;2023-04-25T09:40:06;101722.19;;;9.82;77.11
72157;BME280;60035;52.122;5.406;2023-04-25T09:42:34;101726.41;;;9.84;75.66
72157;BME280;60035;52.122;5.406;2023-04-25T09:45:01;101731.63;;;9.77;75.72
72157;BME280;60035;52.122;5.406;2023-04-25T09:47:28;101743.00;;;9.48;75.85
72157;BME280;60035;52.122;5.406;2023-04-25T09:49:55;101751.84;;;9.14;77.77
72157;BME280;60035;52.122;5.406;2023-04-25T09:52:23;101755.44;;;8.89;80.12
72157;BME280;60035;52.122;5.406;2023-04-25T09:54:51;101771.72;;;8.80;81.29
72157;BME280;60035;52.122;5.406;2023-04-25T09:57:20;101770.06;;;8.71;80.59
72157;BME280;60035;52.122;5.406;2023-04-25T09:59:49;101771.81;;;8.64;80.49
72157;BME280;60035;52.122;5.406;2023-04-25T10:02:18;101781.06;;;8.79;80.82
72157;BME280;60035;52.122;5.406;2023-04-25T10:04:52;101772.59;;;8.77;79.42
72157;BME280;60035;52.122;5.406;2023-04-25T10:07:30;101778.44;;;8.89;81.20
72157;BME280;60035;52.122;5.406;2023-04-25T10:10:02;101775.72;;;9.12;82.07
72157;BME280;60035;52.122;5.406;2023-04-25T10:12:31;101771.19;;;9.43;80.88
72157;BME280;60035;52.122;5.406;2023-04-25T10:14:59;101772.75;;;9.57;78.80
72157;BME280;60035;52.122;5.406;2023-04-25T10:17:29;101769.09;;;9.79;76.45
72157;BME280;60035;52.122;5.406;2023-04-25T10:20:02;101768.13;;;9.90;75.43
72157;BME280;60035;52.122;5.406;2023-04-25T10:22:36;101779.84;;;10.08;73.20
72157;BME280;60035;52.122;5.406;2023-04-25T10:25:03;101761.13;;;10.06;69.20
72157;BME280;60035;52.122;5.406;2023-04-25T10:27:31;101765.91;;;10.32;71.39
72157;BME280;60035;52.122;5.406;2023-04-25T10:32:31;101764.19;;;10.92;66.28
72157;BME280;60035;52.122;5.406;2023-04-25T10:35:10;101763.50;;;10.80;66.29
72157;BME280;60035;52.122;5.406;2023-04-25T10:37:37;101763.47;;;10.83;66.53
72157;BME280;60035;52.122;5.406;2023-04-25T10:40:09;101759.09;;;10.89;64.20
72157;BME280;60035;52.122;5.406;2023-04-25T10:42:36;101770.22;;;10.89;63.89
72157;BME280;60035;52.122;5.406;2023-04-25T10:45:06;101768.44;;;10.94;63.86
72157;BME280;60035;52.122;5.406;2023-04-25T10:47:36;101766.50;;;11.07;64.32
72157;BME280;60035;52.122;5.406;2023-04-25T10:50:09;101761.16;;;11.20;63.27
72157;BME280;60035;52.122;5.406;2023-04-25T10:52:38;101767.16;;;11.19;60.93
72157;BME280;60035;52.122;5.406;2023-04-25T10:55:05;101762.84;;;11.22;62.65
72157;BME280;60035;52.122;5.406;2023-04-25T10:57:37;101758.19;;;11.44;63.33
72157;BME280;60035;52.122;5.406;2023-04-25T11:00:19;101760.78;;;11.87;63.05
72157;BME280;60035;52.122;5.406;2023-04-25T11:02:48;101768.59;;;11.80;62.83
72157;BME280;60035;52.122;5.406;2023-04-25T11:05:27;101762.97;;;11.63;62.92
72157;BME280;60035;52.122;5.406;2023-04-25T11:07:56;101775.38;;;11.39;61.12
72157;BME280;60035;52.122;5.406;2023-04-25T11:10:33;101774.31;;;10.99;62.25
72157;BME280;60035;52.122;5.406;2023-04-25T11:13:02;101779.16;;;10.62;66.26
72157;BME280;60035;52.122;5.406;2023-04-25T11:15:29;101796.59;;;10.35;69.35
72157;BME280;60035;52.122;5.406;2023-04-25T11:17:55;101800.88;;;10.36;72.76
72157;BME280;60035;52.122;5.406;2023-04-25T11:20:27;101801.41;;;10.60;74.33
72157;BME280;60035;52.122;5.406;2023-04-25T11:22:57;101811.97;;;10.32;72.96
72157;BME280;60035;52.122;5.406;2023-04-25T11:25:28;101815.13;;;9.81;73.97
72157;BME280;60035;52.122;5.406;2023-04-25T11:27:57;101813.59;;;9.61;75.84
72157;BME280;60035;52.122;5.406;2023-04-25T11:30:26;101809.41;;;9.56;76.83
72157;BME280;60035;52.122;5.406;2023-04-25T11:32:53;101815.38;;;9.55;77.11
72157;BME280;60035;52.122;5.406;2023-04-25T11:35:19;101823.19;;;9.38;76.14
72157;BME280;60035;52.122;5.406;2023-04-25T11:37:47;101817.28;;;9.32;76.60
72157;BME280;60035;52.122;5.406;2023-04-25T11:40:13;101823.25;;;9.33;76.26
72157;BME280;60035;52.122;5.406;2023-04-25T11:42:45;101815.50;;;9.39;73.88
72157;BME280;60035;52.122;5.406;2023-04-25T11:45:12;101823.09;;;9.47;72.98
72157;BME280;60035;52.122;5.406;2023-04-25T11:47:39;101831.56;;;9.54;70.16
72157;BME280;60035;52.122;5.406;2023-04-25T11:50:07;101824.72;;;9.57;68.87
72157;BME280;60035;52.122;5.406;2023-04-25T11:52:42;101824.41;;;9.90;68.29
72157;BME280;60035;52.122;5.406;2023-04-25T11:55:13;101825.88;;;10.12;67.19
72157;BME280;60035;52.122;5.406;2023-04-25T11:57:40;101824.81;;;10.29;66.66
72157;BME280;60035;52.122;5.406;2023-04-25T12:00:12;101828.56;;;10.69;64.06
72157;BME280;60035;52.122;5.406;2023-04-25T12:02:51;101814.47;;;10.99;63.92
72157;BME280;60035;52.122;5.406;2023-04-25T12:05:18;101808.88;;;11.28;63.32
72157;BME280;60035;52.122;5.406;2023-04-25T12:08:09;101809.78;;;11.74;63.01
72157;BME280;60035;52.122;5.406;2023-04-25T12:10:41;101808.31;;;12.06;60.68
72157;BME280;60035;52.122;5.406;2023-04-25T12:13:19;101808.97;;;11.72;59.47
72157;BME280;60035;52.122;5.406;2023-04-25T12:15:46;101821.75;;;11.25;59.32
72157;BME280;60035;52.122;5.406;2023-04-25T12:18:12;101832.31;;;11.05;61.37
72157;BME280;60035;52.122;5.406;2023-04-25T12:20:39;101836.72;;;10.97;58.91
72157;BME280;60035;52.122;5.406;2023-04-25T12:23:06;101837.03;;;10.74;59.28
72157;BME280;60035;52.122;5.406;2023-04-25T12:25:38;101837.88;;;10.76;57.65
72157;BME280;60035;52.122;5.406;2023-04-25T12:28:22;101839.56;;;10.77;59.44
72157;BME280;60035;52.122;5.406;2023-04-25T12:30:54;101843.91;;;10.73;58.42
72157;BME280;60035;52.122;5.406;2023-04-25T12:33:32;101843.28;;;10.54;58.54
72157;BME280;60035;52.122;5.406;2023-04-25T12:35:59;101847.59;;;10.52;59.87
72157;BME280;60035;52.122;5.406;2023-04-25T12:38:29;101839.72;;;10.66;60.04
72157;BME280;60035;52.122;5.406;2023-04-25T12:40:59;101842.56;;;11.05;59.02
72157;BME280;60035;52.122;5.406;2023-04-25T12:43:29;101838.34;;;11.03;57.05
72157;BME280;60035;52.122;5.406;2023-04-25T12:45:56;101834.56;;;11.25;57.07
72157;BME280;60035;52.122;5.406;2023-04-25T12:48:23;101839.63;;;11.28;55.80
72157;BME280;60035;52.122;5.406;2023-04-25T12:50:50;101837.19;;;11.22;55.96
72157;BME280;60035;52.122;5.406;2023-04-25T12:53:22;101840.41;;;11.33;57.88
72157;BME280;60035;52.122;5.406;2023-04-25T12:55:50;101825.06;;;11.80;55.42
72157;BME280;60035;52.122;5.406;2023-04-25T12:58:17;101826.34;;;12.05;55.98
72157;BME280;60035;52.122;5.406;2023-04-25T13:00:44;101820.06;;;12.59;55.16